sensor_id;sensor_type;location;lat;lon;timestamp;pressure;altitude;pressure_sealevel;temperature;humidity
14343;BME280;7255;53.596;9.960;2022-07-19T07:34:44;101865.44;;;23.63;nan
14343;BME280;7255;53.596;9.960;2022-07-19T07:37:11;101864.84;;;24.06;nan
14343;BME280;7255;53.596;9.960;2022-07-19T07:39:37;101873.03;;;24.40;nan
14343;BME280;7255;53.596;9.960;2022-07-19T07:42:04;101864.53;;;24.66;nan
14343;BME280;7255;53.596;9.960;2022-07-19T07:44:31;101862.94;;;24.84;nan
14343;BME280;7255;53.596;9.960;2022-07-19T07:46:59;101876.44;;;25.04;nan
14343;BME280;7255;53.596;9.960;2022-07-19T07:49:25;101865.97;;;25.25;nan
14343;BME280;7255;53.596;9.960;2022-07-19T07:51:52;101856.31;;;25.47;nan
14343;BME280;7255;53.596;9.960;2022-07-19T07:54:19;101857.22;;;25.61;nan
14343;BME280;7255;53.596;9.960;2022-07-19T07:56:45;101857.75;;;25.77;nan
14343;BME280;7255;53.596;9.960;2022-07-19T07:59:11;101847.59;;;25.91;nan
14343;BME280;7255;53.596;9.960;2022-07-19T08:01:38;101852.25;;;25.96;nan
14343;BME280;7255;53.596;9.960;2022-07-19T08:04:06;101851.66;;;25.99;nan
14343;BME280;7255;53.596;9.960;2022-07-19T08:06:32;101844.94;;;26.19;nan
14343;BME280;7255;53.596;9.960;2022-07-19T08:08:58;101856.19;;;26.37;nan
14343;BME280;7255;53.596;9.960;2022-07-19T08:11:25;101844.78;;;26.43;nan
14343;BME280;7255;53.596;9.960;2022-07-19T08:13:51;101845.19;;;26.50;nan
14343;BME280;7255;53.596;9.960;2022-07-19T08:16:17;101841.34;;;26.65;nan
14343;BME280;7255;53.596;9.960;2022-07-19T08:18:44;101836.00;;;26.83;nan
14343;BME280;7255;53.596;9.960;2022-07-19T08:21:11;101839.50;;;26.75;nan
14343;BME280;7255;53.596;9.960;2022-07-19T08:23:38;101834.56;;;26.85;nan
14343;BME280;7255;53.596;9.960;2022-07-19T08:26:06;101832.22;;;26.93;nan
14343;BME280;7255;53.596;9.960;2022-07-19T08:28:32;101826.87;;;26.96;nan
14343;BME280;7255;53.596;9.960;2022-07-19T08:30:59;101828.00;;;27.09;nan
14343;BME280;7255;53.596;9.960;2022-07-19T08:33:25;101819.84;;;27.04;nan
14343;BME280;7255;53.596;9.960;2022-07-19T08:35:51;101814.72;;;27.11;nan
14343;BME280;7255;53.596;9.960;2022-07-19T08:38:19;101821.41;;;27.19;nan
14343;BME280;7255;53.596;9.960;2022-07-19T08:40:47;101822.03;;;27.30;nan
14343;BME280;7255;53.596;9.960;2022-07-19T08:43:17;101817.09;;;27.40;nan
14343;BME280;7255;53.596;9.960;2022-07-19T08:45:46;101825.78;;;27.56;nan
14343;BME280;7255;53.596;9.960;2022-07-19T08:48:13;101816.37;;;27.57;nan
14343;BME280;7255;53.596;9.960;2022-07-19T08:50:40;101812.41;;;27.72;nan
14343;BME280;7255;53.596;9.960;2022-07-19T08:53:07;101818.12;;;27.76;nan
14343;BME280;7255;53.596;9.960;2022-07-19T08:55:34;101820.06;;;27.98;nan
14343;BME280;7255;53.596;9.960;2022-07-19T08:58:01;101814.06;;;27.96;nan
14343;BME280;7255;53.596;9.960;2022-07-19T09:00:27;101817.00;;;27.99;nan
14343;BME280;7255;53.596;9.960;2022-07-19T09:02:56;101812.47;;;28.03;nan
14343;BME280;7255;53.596;9.960;2022-07-19T09:05:23;101805.31;;;28.02;nan
14343;BME280;7255;53.596;9.960;2022-07-19T09:08:01;101816.19;;;27.99;nan
14343;BME280;7255;53.596;9.960;2022-07-19T09:10:29;101814.91;;;28.05;nan
14343;BME280;7255;53.596;9.960;2022-07-19T09:13:02;101817.97;;;28.03;nan
14343;BME280;7255;53.596;9.960;2022-07-19T09:15:54;101810.63;;;28.30;nan
14343;BME280;7255;53.596;9.960;2022-07-19T09:18:22;101814.53;;;28.29;nan
14343;BME280;7255;53.596;9.960;2022-07-19T09:20:50;101810.31;;;28.40;nan
14343;BME280;7255;53.596;9.960;2022-07-19T09:23:18;101810.03;;;28.51;nan
14343;BME280;7255;53.596;9.960;2022-07-19T09:25:46;101809.13;;;28.64;nan
14343;BME280;7255;53.596;9.960;2022-07-19T09:28:15;101813.50;;;28.56;nan
14343;BME280;7255;53.596;9.960;2022-07-19T09:30:43;101823.44;;;28.66;nan
14343;BME280;7255;53.596;9.960;2022-07-19T09:33:12;101809.94;;;28.73;nan
14343;BME280;7255;53.596;9.960;2022-07-19T09:35:41;101804.62;;;28.86;nan
14343;BME280;7255;53.596;9.960;2022-07-19T09:38:29;101807.22;;;29.08;nan
14343;BME280;7255;53.596;9.960;2022-07-19T09:41:08;101798.59;;;29.10;nan
14343;BME280;7255;53.596;9.960;2022-07-19T09:43:52;101802.34;;;29.05;nan
14343;BME280;7255;53.596;9.960;2022-07-19T09:46:30;101803.69;;;29.16;nan
14343;BME280;7255;53.596;9.960;2022-07-19T09:49:03;101795.22;;;29.22;nan
14343;BME280;7255;53.596;9.960;2022-07-19T09:51:30;101796.84;;;29.23;nan
14343;BME280;7255;53.596;9.960;2022-07-19T09:53:58;101795.19;;;29.39;nan
14343;BME280;7255;53.596;9.960;2022-07-19T09:56:28;101803.34;;;29.44;nan
14343;BME280;7255;53.596;9.960;2022-07-19T09:58:57;101802.03;;;29.50;nan
14343;BME280;7255;53.596;9.960;2022-07-19T10:01:25;101800.34;;;29.67;nan
14343;BME280;7255;53.596;9.960;2022-07-19T10:03:54;101801.69;;;29.61;nan
14343;BME280;7255;53.596;9.960;2022-07-19T10:06:21;101799.25;;;29.59;nan
14343;BME280;7255;53.596;9.960;2022-07-19T10:08:48;101798.22;;;29.72;nan
14343;BME280;7255;53.596;9.960;2022-07-19T10:11:15;101794.97;;;29.88;nan
14343;BME280;7255;53.596;9.960;2022-07-19T10:13:42;101789.72;;;29.95;nan
14343;BME280;7255;53.596;9.960;2022-07-19T10:16:13;101797.34;;;30.07;nan
14343;BME280;7255;53.596;9.960;2022-07-19T10:18:47;101795.19;;;30.12;nan
14343;BME280;7255;53.596;9.960;2022-07-19T10:21:17;101786.03;;;30.21;nan
14343;BME280;7255;53.596;9.960;2022-07-19T10:23:50;101788.75;;;30.29;nan
14343;BME280;7255;53.596;9.960;2022-07-19T10:26:34;101784.53;;;30.23;nan
14343;BME280;7255;53.596;9.960;2022-07-19T10:29:09;101785.31;;;30.32;nan
14343;BME280;7255;53.596;9.960;2022-07-19T10:31:37;101792.28;;;30.47;nan
14343;BME280;7255;53.596;9.960;2022-07-19T10:34:06;101777.88;;;30.54;nan
14343;BME280;7255;53.596;9.960;2022-07-19T10:36:35;101763.03;;;30.80;nan
14343;BME280;7255;53.596;9.960;2022-07-19T10:39:23;101774.19;;;30.71;nan
14343;BME280;7255;53.596;9.960;2022-07-19T10:42:19;101774.31;;;30.75;nan
14343;BME280;7255;53.596;9.960;2022-07-19T10:45:11;101768.16;;;30.90;nan
14343;BME280;7255;53.596;9.960;2022-07-19T10:48:04;101759.53;;;31.13;nan
14343;BME280;7255;53.596;9.960;2022-07-19T10:50:54;101764.50;;;31.19;nan
14343;BME280;7255;53.596;9.960;2022-07-19T10:53:59;101761.44;;;31.33;nan
14343;BME280;7255;53.596;9.960;2022-07-19T10:56:34;101759.31;;;31.18;nan
14343;BME280;7255;53.596;9.960;2022-07-19T10:59:02;101757.72;;;31.29;nan
14343;BME280;7255;53.596;9.960;2022-07-19T11:01:31;101763.44;;;31.45;nan
14343;BME280;7255;53.596;9.960;2022-07-19T11:04:23;101760.72;;;31.57;nan
14343;BME280;7255;53.596;9.960;2022-07-19T11:06:50;101757.41;;;31.76;nan
14343;BME280;7255;53.596;9.960;2022-07-19T11:09:16;101752.19;;;31.75;nan
14343;BME280;7255;53.596;9.960;2022-07-19T11:11:43;101755.81;;;31.88;nan
14343;BME280;7255;53.596;9.960;2022-07-19T11:14:09;101758.56;;;32.00;nan
14343;BME280;7255;53.596;9.960;2022-07-19T11:16:35;101760.69;;;32.15;nan
14343;BME280;7255;53.596;9.960;2022-07-19T11:19:02;101750.50;;;32.19;nan
14343;BME280;7255;53.596;9.960;2022-07-19T11:21:32;101748.63;;;32.36;nan
14343;BME280;7255;53.596;9.960;2022-07-19T11:24:00;101739.56;;;32.51;nan
14343;BME280;7255;53.596;9.960;2022-07-19T11:26:34;101739.78;;;32.71;nan
14343;BME280;7255;53.596;9.960;2022-07-19T11:29:01;101734.09;;;32.79;nan
14343;BME280;7255;53.596;9.960;2022-07-19T11:31:27;101741.53;;;33.04;nan
14343;BME280;7255;53.596;9.960;2022-07-19T11:33:54;101742.19;;;33.13;nan
14343;BME280;7255;53.596;9.960;2022-07-19T11:36:22;101746.72;;;33.33;nan
14343;BME280;7255;53.596;9.960;2022-07-19T11:38:54;101736.84;;;33.20;nan
14343;BME280;7255;53.596;9.960;2022-07-19T11:41:23;101737.97;;;33.19;nan
14343;BME280;7255;53.596;9.960;2022-07-19T11:43:53;101730.38;;;33.16;nan
14343;BME280;7255;53.596;9.960;2022-07-19T11:46:20;101732.56;;;33.38;nan
14343;BME280;7255;53.596;9.960;2022-07-19T11:48:48;101732.94;;;33.53;nan
14343;BME280;7255;53.596;9.960;2022-07-19T11:51:15;101729.16;;;33.61;nan
14343;BME280;7255;53.596;9.960;2022-07-19T11:53:42;101725.50;;;33.73;nan
14343;BME280;7255;53.596;9.960;2022-07-19T11:56:18;101721.97;;;33.92;nan
14343;BME280;7255;53.596;9.960;2022-07-19T11:58:45;101723.88;;;34.04;nan
14343;BME280;7255;53.596;9.960;2022-07-19T12:01:12;101725.63;;;34.12;nan
14343;BME280;7255;53.596;9.960;2022-07-19T12:03:39;101726.72;;;34.23;nan
14343;BME280;7255;53.596;9.960;2022-07-19T12:06:06;101730.09;;;34.32;nan
14343;BME280;7255;53.596;9.960;2022-07-19T12:08:36;101732.22;;;34.20;nan
14343;BME280;7255;53.596;9.960;2022-07-19T12:11:25;101726.75;;;33.91;nan
14343;BME280;7255;53.596;9.960;2022-07-19T12:13:53;101724.38;;;34.25;nan
14343;BME280;7255;53.596;9.960;2022-07-19T12:16:20;101720.63;;;34.73;nan
14343;BME280;7255;53.596;9.960;2022-07-19T12:18:50;101720.94;;;34.87;nan
14343;BME280;7255;53.596;9.960;2022-07-19T12:21:26;101708.28;;;34.93;nan
14343;BME280;7255;53.596;9.960;2022-07-19T12:24:13;101719.38;;;35.09;nan
14343;BME280;7255;53.596;9.960;2022-07-19T12:26:43;101712.03;;;35.20;nan
14343;BME280;7255;53.596;9.960;2022-07-19T12:29:18;101718.66;;;34.93;nan
14343;BME280;7255;53.596;9.960;2022-07-19T12:31:45;101714.81;;;35.20;nan
14343;BME280;7255;53.596;9.960;2022-07-19T12:34:12;101703.38;;;35.49;nan
14343;BME280;7255;53.596;9.960;2022-07-19T12:36:38;101697.34;;;35.46;nan
14343;BME280;7255;53.596;9.960;2022-07-19T12:39:16;101710.31;;;35.58;nan
14343;BME280;7255;53.596;9.960;2022-07-19T12:41:54;101699.97;;;35.16;nan
14343;BME280;7255;53.596;9.960;2022-07-19T12:44:20;101698.94;;;35.47;nan
14343;BME280;7255;53.596;9.960;2022-07-19T12:46:47;101703.66;;;35.66;nan
14343;BME280;7255;53.596;9.960;2022-07-19T12:49:13;101711.94;;;36.09;nan
14343;BME280;7255;53.596;9.960;2022-07-19T12:51:39;101707.13;;;36.10;nan
14343;BME280;7255;53.596;9.960;2022-07-19T12:54:09;101703.91;;;36.08;nan
14343;BME280;7255;53.596;9.960;2022-07-19T12:56:35;101708.19;;;36.25;nan
14343;BME280;7255;53.596;9.960;2022-07-19T12:59:02;101693.50;;;36.31;nan
14343;BME280;7255;53.596;9.960;2022-07-19T13:01:46;101693.59;;;36.12;nan
14343;BME280;7255;53.596;9.960;2022-07-19T13:04:13;101695.44;;;36.27;nan
14343;BME280;7255;53.596;9.960;2022-07-19T13:06:39;101691.22;;;36.14;nan
14343;BME280;7255;53.596;9.960;2022-07-19T13:09:05;101692.56;;;36.54;nan
14343;BME280;7255;53.596;9.960;2022-07-19T13:11:31;101685.06;;;36.92;nan
14343;BME280;7255;53.596;9.960;2022-07-19T13:13:58;101682.81;;;37.08;nan
14343;BME280;7255;53.596;9.960;2022-07-19T13:16:26;101676.88;;;37.13;nan
14343;BME280;7255;53.596;9.960;2022-07-19T13:18:52;101685.69;;;36.78;nan
14343;BME280;7255;53.596;9.960;2022-07-19T13:21:19;101669.97;;;37.04;nan
14343;BME280;7255;53.596;9.960;2022-07-19T13:23:46;101673.78;;;37.26;nan
14343;BME280;7255;53.596;9.960;2022-07-19T13:26:13;101665.44;;;36.58;nan
14343;BME280;7255;53.596;9.960;2022-07-19T13:28:39;101671.78;;;37.23;nan
14343;BME280;7255;53.596;9.960;2022-07-19T13:31:05;101669.59;;;37.46;nan
14343;BME280;7255;53.596;9.960;2022-07-19T13:33:34;101666.47;;;37.59;nan
14343;BME280;7255;53.596;9.960;2022-07-19T13:36:00;101663.78;;;37.73;nan
14343;BME280;7255;53.596;9.960;2022-07-19T13:38:26;101656.44;;;38.09;nan
14343;BME280;7255;53.596;9.960;2022-07-19T13:40:53;101663.78;;;38.43;nan
14343;BME280;7255;53.596;9.960;2022-07-19T13:43:19;101660.47;;;38.12;nan
14343;BME280;7255;53.596;9.960;2022-07-19T13:45:46;101652.59;;;37.77;nan
14343;BME280;7255;53.596;9.960;2022-07-19T13:48:12;101651.56;;;38.06;nan
14343;BME280;7255;53.596;9.960;2022-07-19T13:50:40;101647.37;;;38.38;nan
14343;BME280;7255;53.596;9.960;2022-07-19T13:53:06;101653.00;;;38.52;nan
14343;BME280;7255;53.596;9.960;2022-07-19T13:55:32;101646.91;;;38.28;nan
14343;BME280;7255;53.596;9.960;2022-07-19T13:57:59;101649.91;;;37.94;nan
14343;BME280;7255;53.596;9.960;2022-07-19T14:00:25;101643.50;;;37.94;nan
14343;BME280;7255;53.596;9.960;2022-07-19T14:02:51;101636.41;;;38.11;nan
14343;BME280;7255;53.596;9.960;2022-07-19T14:05:18;101634.97;;;38.49;nan
14343;BME280;7255;53.596;9.960;2022-07-19T14:07:45;101631.03;;;38.72;nan
14343;BME280;7255;53.596;9.960;2022-07-19T14:10:12;101633.44;;;38.66;nan
14343;BME280;7255;53.596;9.960;2022-07-19T14:12:38;101623.84;;;38.85;nan
14343;BME280;7255;53.596;9.960;2022-07-19T14:15:06;101623.03;;;38.96;nan
14343;BME280;7255;53.596;9.960;2022-07-19T14:17:32;101625.44;;;38.97;nan
14343;BME280;7255;53.596;9.960;2022-07-19T14:19:59;101620.66;;;39.01;nan
14343;BME280;7255;53.596;9.960;2022-07-19T14:22:26;101616.69;;;39.24;nan
14343;BME280;7255;53.596;9.960;2022-07-19T14:24:54;101614.25;;;39.33;nan
14343;BME280;7255;53.596;9.960;2022-07-19T14:27:20;101617.41;;;39.71;nan
14343;BME280;7255;53.596;9.960;2022-07-19T14:29:46;101612.50;;;40.11;nan
14343;BME280;7255;53.596;9.960;2022-07-19T14:32:12;101617.63;;;40.38;nan
14343;BME280;7255;53.596;9.960;2022-07-19T14:34:39;101611.62;;;40.29;nan
14343;BME280;7255;53.596;9.960;2022-07-19T14:37:06;101611.53;;;40.50;nan
14343;BME280;7255;53.596;9.960;2022-07-19T14:39:33;101604.72;;;40.44;nan
14343;BME280;7255;53.596;9.960;2022-07-19T14:42:01;101613.00;;;40.73;nan
14343;BME280;7255;53.596;9.960;2022-07-19T14:44:27;101601.81;;;40.62;nan
14343;BME280;7255;53.596;9.960;2022-07-19T14:46:54;101594.19;;;41.15;nan
14343;BME280;7255;53.596;9.960;2022-07-19T14:49:20;101590.13;;;41.16;nan
14343;BME280;7255;53.596;9.960;2022-07-19T14:51:47;101594.94;;;41.19;nan
14343;BME280;7255;53.596;9.960;2022-07-19T14:54:13;101603.75;;;41.28;nan
14343;BME280;7255;53.596;9.960;2022-07-19T14:56:39;101594.72;;;41.48;nan
14343;BME280;7255;53.596;9.960;2022-07-19T14:59:07;101603.53;;;41.50;nan
14343;BME280;7255;53.596;9.960;2022-07-19T15:01:33;101588.09;;;41.65;nan
14343;BME280;7255;53.596;9.960;2022-07-19T15:04:00;101584.47;;;41.23;nan
14343;BME280;7255;53.596;9.960;2022-07-19T15:06:26;101578.87;;;41.16;nan
14343;BME280;7255;53.596;9.960;2022-07-19T15:08:54;101591.66;;;41.31;nan
14343;BME280;7255;53.596;9.960;2022-07-19T15:11:20;101577.44;;;41.80;nan
14343;BME280;7255;53.596;9.960;2022-07-19T15:13:47;101575.34;;;41.05;nan
14343;BME280;7255;53.596;9.960;2022-07-19T15:16:14;101575.72;;;41.52;nan
14343;BME280;7255;53.596;9.960;2022-07-19T15:18:41;101573.28;;;41.54;nan
14343;BME280;7255;53.596;9.960;2022-07-19T15:21:07;101571.69;;;41.87;nan
14343;BME280;7255;53.596;9.960;2022-07-19T15:23:34;101565.94;;;41.98;nan
14343;BME280;7255;53.596;9.960;2022-07-19T15:26:00;101569.13;;;42.31;nan
14343;BME280;7255;53.596;9.960;2022-07-19T15:28:26;101569.75;;;42.73;nan
14343;BME280;7255;53.596;9.960;2022-07-19T15:30:53;101563.81;;;42.91;nan
14343;BME280;7255;53.596;9.960;2022-07-19T15:33:20;101564.28;;;42.86;nan
14343;BME280;7255;53.596;9.960;2022-07-19T15:35:47;101560.50;;;42.96;nan
14343;BME280;7255;53.596;9.960;2022-07-19T15:38:13;101555.59;;;43.00;nan
14343;BME280;7255;53.596;9.960;2022-07-19T15:40:39;101547.81;;;42.81;nan
14343;BME280;7255;53.596;9.960;2022-07-19T15:43:06;101548.34;;;42.48;nan
14343;BME280;7255;53.596;9.960;2022-07-19T15:45:32;101552.06;;;42.69;nan
14343;BME280;7255;53.596;9.960;2022-07-19T15:47:58;101541.84;;;42.75;nan
14343;BME280;7255;53.596;9.960;2022-07-19T15:50:26;101539.41;;;43.01;nan
14343;BME280;7255;53.596;9.960;2022-07-19T15:52:52;101542.72;;;42.99;nan
14343;BME280;7255;53.596;9.960;2022-07-19T15:55:19;101545.34;;;43.30;nan
14343;BME280;7255;53.596;9.960;2022-07-19T15:57:46;101536.34;;;42.92;nan
14343;BME280;7255;53.596;9.960;2022-07-19T16:00:12;101538.78;;;43.37;nan
14343;BME280;7255;53.596;9.960;2022-07-19T16:02:39;101530.81;;;43.32;nan
14343;BME280;7255;53.596;9.960;2022-07-19T16:05:07;101525.97;;;43.09;nan
14343;BME280;7255;53.596;9.960;2022-07-19T16:07:36;101538.84;;;43.33;nan
14343;BME280;7255;53.596;9.960;2022-07-19T16:10:03;101532.84;;;43.91;nan
14343;BME280;7255;53.596;9.960;2022-07-19T16:12:31;101528.09;;;44.05;nan
14343;BME280;7255;53.596;9.960;2022-07-19T16:14:57;101528.47;;;44.07;nan
14343;BME280;7255;53.596;9.960;2022-07-19T16:17:24;101518.22;;;43.13;nan
14343;BME280;7255;53.596;9.960;2022-07-19T16:19:52;101522.34;;;43.08;nan
14343;BME280;7255;53.596;9.960;2022-07-19T16:22:19;101518.34;;;43.05;nan
14343;BME280;7255;53.596;9.960;2022-07-19T16:24:47;101514.44;;;42.99;nan
14343;BME280;7255;53.596;9.960;2022-07-19T16:27:13;101513.25;;;42.73;nan
14343;BME280;7255;53.596;9.960;2022-07-19T16:29:39;101507.59;;;42.73;nan
14343;BME280;7255;53.596;9.960;2022-07-19T16:32:07;101512.19;;;42.91;nan
14343;BME280;7255;53.596;9.960;2022-07-19T16:34:33;101511.41;;;42.86;nan
14343;BME280;7255;53.596;9.960;2022-07-19T16:37:00;101500.66;;;42.54;nan
14343;BME280;7255;53.596;9.960;2022-07-19T16:39:28;101492.62;;;41.94;nan
14343;BME280;7255;53.596;9.960;2022-07-19T16:41:56;101500.06;;;42.39;nan
14343;BME280;7255;53.596;9.960;2022-07-19T16:44:22;101489.44;;;42.98;nan
14343;BME280;7255;53.596;9.960;2022-07-19T16:46:48;101484.37;;;43.09;nan
14343;BME280;7255;53.596;9.960;2022-07-19T16:49:15;101485.06;;;42.93;nan
14343;BME280;7255;53.596;9.960;2022-07-19T16:51:41;101487.78;;;43.00;nan
14343;BME280;7255;53.596;9.960;2022-07-19T16:54:07;101489.66;;;43.31;nan
14343;BME280;7255;53.596;9.960;2022-07-19T16:56:34;101492.28;;;42.20;nan
14343;BME280;7255;53.596;9.960;2022-07-19T16:59:01;101480.59;;;41.90;nan
14343;BME280;7255;53.596;9.960;2022-07-19T17:01:28;101489.50;;;41.16;nan
14343;BME280;7255;53.596;9.960;2022-07-19T17:03:55;101489.44;;;41.27;nan
14343;BME280;7255;53.596;9.960;2022-07-19T17:06:21;101488.94;;;41.32;nan
14343;BME280;7255;53.596;9.960;2022-07-19T17:08:48;101483.84;;;41.24;nan
14343;BME280;7255;53.596;9.960;2022-07-19T17:11:15;101484.53;;;41.31;nan
14343;BME280;7255;53.596;9.960;2022-07-19T17:13:41;101484.28;;;41.15;nan
14343;BME280;7255;53.596;9.960;2022-07-19T17:16:09;101470.69;;;40.61;nan
14343;BME280;7255;53.596;9.960;2022-07-19T17:18:37;101464.97;;;40.72;nan
14343;BME280;7255;53.596;9.960;2022-07-19T17:21:03;101471.50;;;40.62;nan
14343;BME280;7255;53.596;9.960;2022-07-19T17:23:30;101469.06;;;40.64;nan
14343;BME280;7255;53.596;9.960;2022-07-19T17:25:56;101470.81;;;40.47;nan
14343;BME280;7255;53.596;9.960;2022-07-19T17:28:22;101468.75;;;40.99;nan
14343;BME280;7255;53.596;9.960;2022-07-19T17:30:49;101464.78;;;40.93;nan
14343;BME280;7255;53.596;9.960;2022-07-19T17:33:16;101472.03;;;40.94;nan
14343;BME280;7255;53.596;9.960;2022-07-19T17:35:43;101456.34;;;40.45;nan
14343;BME280;7255;53.596;9.960;2022-07-19T17:38:09;101467.50;;;40.55;nan
14343;BME280;7255;53.596;9.960;2022-07-19T17:40:36;101471.41;;;40.72;nan
14343;BME280;7255;53.596;9.960;2022-07-19T17:43:02;101469.59;;;40.96;nan
14343;BME280;7255;53.596;9.960;2022-07-19T17:45:29;101469.28;;;40.31;nan
14343;BME280;7255;53.596;9.960;2022-07-19T17:47:55;101465.44;;;40.07;nan
14343;BME280;7255;53.596;9.960;2022-07-19T17:50:23;101473.09;;;40.03;nan
14343;BME280;7255;53.596;9.960;2022-07-19T17:52:49;101463.00;;;40.09;nan
14343;BME280;7255;53.596;9.960;2022-07-19T17:55:15;101464.09;;;39.41;nan
14343;BME280;7255;53.596;9.960;2022-07-19T17:57:41;101464.97;;;39.20;nan
14343;BME280;7255;53.596;9.960;2022-07-19T18:00:09;101459.34;;;39.17;nan
14343;BME280;7255;53.596;9.960;2022-07-19T18:02:36;101466.59;;;38.60;nan
14343;BME280;7255;53.596;9.960;2022-07-19T18:05:03;101464.13;;;38.19;nan
14343;BME280;7255;53.596;9.960;2022-07-19T18:07:31;101462.53;;;38.11;nan
14343;BME280;7255;53.596;9.960;2022-07-19T18:09:58;101460.81;;;37.81;nan
14343;BME280;7255;53.596;9.960;2022-07-19T18:12:24;101443.91;;;37.63;nan
14343;BME280;7255;53.596;9.960;2022-07-19T18:14:50;101451.56;;;37.66;nan
14343;BME280;7255;53.596;9.960;2022-07-19T18:17:17;101458.25;;;37.54;nan
14343;BME280;7255;53.596;9.960;2022-07-19T18:19:44;101461.56;;;37.74;nan
14343;BME280;7255;53.596;9.960;2022-07-19T18:22:10;101454.37;;;37.70;nan
14343;BME280;7255;53.596;9.960;2022-07-19T18:24:37;101450.06;;;37.17;nan
14343;BME280;7255;53.596;9.960;2022-07-19T18:27:04;101456.72;;;37.02;nan
14343;BME280;7255;53.596;9.960;2022-07-19T18:29:32;101456.28;;;36.96;nan
14343;BME280;7255;53.596;9.960;2022-07-19T18:31:58;101452.22;;;36.41;nan
14343;BME280;7255;53.596;9.960;2022-07-19T18:34:25;101448.13;;;35.94;nan
14343;BME280;7255;53.596;9.960;2022-07-19T18:36:51;101453.91;;;34.95;nan
14343;BME280;7255;53.596;9.960;2022-07-19T18:39:18;101453.66;;;34.34;nan
14343;BME280;7255;53.596;9.960;2022-07-19T18:41:45;101447.56;;;33.66;nan
14343;BME280;7255;53.596;9.960;2022-07-19T18:44:12;101444.59;;;33.08;nan
14343;BME280;7255;53.596;9.960;2022-07-19T18:46:38;101459.19;;;32.85;nan
14343;BME280;7255;53.596;9.960;2022-07-19T18:49:05;101446.00;;;32.66;nan
14343;BME280;7255;53.596;9.960;2022-07-19T18:51:31;101450.69;;;32.34;nan
14343;BME280;7255;53.596;9.960;2022-07-19T18:53:58;101454.25;;;31.90;nan
14343;BME280;7255;53.596;9.960;2022-07-19T18:56:24;101455.91;;;31.79;nan
14343;BME280;7255;53.596;9.960;2022-07-19T18:58:53;101455.59;;;31.68;nan
14343;BME280;7255;53.596;9.960;2022-07-19T19:01:19;101459.47;;;31.51;nan
14343;BME280;7255;53.596;9.960;2022-07-19T19:03:46;101468.84;;;31.22;nan
14343;BME280;7255;53.596;9.960;2022-07-19T19:06:12;101466.06;;;31.09;nan
14343;BME280;7255;53.596;9.960;2022-07-19T19:08:39;101472.66;;;30.93;nan
14343;BME280;7255;53.596;9.960;2022-07-19T19:11:05;101471.78;;;30.67;nan
14343;BME280;7255;53.596;9.960;2022-07-19T19:13:33;101482.13;;;30.46;nan
14343;BME280;7255;53.596;9.960;2022-07-19T19:16:02;101473.09;;;30.37;nan
14343;BME280;7255;53.596;9.960;2022-07-19T19:18:28;101475.94;;;30.28;nan
14343;BME280;7255;53.596;9.960;2022-07-19T19:20:54;101476.94;;;30.23;nan
14343;BME280;7255;53.596;9.960;2022-07-19T19:23:21;101476.31;;;29.84;nan
14343;BME280;7255;53.596;9.960;2022-07-19T19:25:47;101480.97;;;29.71;nan
14343;BME280;7255;53.596;9.960;2022-07-19T19:28:13;101477.87;;;29.43;nan
14343;BME280;7255;53.596;9.960;2022-07-19T19:30:40;101482.19;;;29.32;nan
14343;BME280;7255;53.596;9.960;2022-07-19T19:33:08;101480.75;;;29.26;nan
14343;BME280;7255;53.596;9.960;2022-07-19T19:35:35;101484.87;;;29.11;nan
14343;BME280;7255;53.596;9.960;2022-07-19T19:38:02;101488.97;;;29.05;nan
14343;BME280;7255;53.596;9.960;2022-07-19T19:40:29;101484.13;;;28.93;nan
14343;BME280;7255;53.596;9.960;2022-07-19T19:42:56;101479.81;;;28.83;nan
14343;BME280;7255;53.596;9.960;2022-07-19T19:45:23;101475.28;;;28.61;nan
14343;BME280;7255;53.596;9.960;2022-07-19T19:47:50;101488.16;;;28.57;nan
14343;BME280;7255;53.596;9.960;2022-07-19T19:50:17;101482.97;;;28.47;nan
14343;BME280;7255;53.596;9.960;2022-07-19T19:52:44;101481.66;;;28.35;nan
14343;BME280;7255;53.596;9.960;2022-07-19T19:55:12;101478.78;;;28.23;nan
14343;BME280;7255;53.596;9.960;2022-07-19T19:57:39;101473.09;;;28.02;nan
14343;BME280;7255;53.596;9.960;2022-07-19T20:00:06;101474.22;;;27.92;nan
14343;BME280;7255;53.596;9.960;2022-07-19T20:02:33;101488.81;;;27.84;nan
14343;BME280;7255;53.596;9.960;2022-07-19T20:04:59;101492.03;;;27.69;nan
14343;BME280;7255;53.596;9.960;2022-07-19T20:07:27;101494.28;;;27.49;nan
14343;BME280;7255;53.596;9.960;2022-07-19T20:09:53;101497.84;;;27.41;nan
14343;BME280;7255;53.596;9.960;2022-07-19T20:12:20;101493.63;;;27.52;nan
14343;BME280;7255;53.596;9.960;2022-07-19T20:14:46;101489.72;;;27.36;nan
14343;BME280;7255;53.596;9.960;2022-07-19T20:17:13;101501.94;;;27.12;nan
14343;BME280;7255;53.596;9.960;2022-07-19T20:19:39;101494.81;;;27.11;nan
14343;BME280;7255;53.596;9.960;2022-07-19T20:22:06;101496.88;;;27.05;nan
14343;BME280;7255;53.596;9.960;2022-07-19T20:24:33;101499.78;;;27.00;nan
14343;BME280;7255;53.596;9.960;2022-07-19T20:26:59;101502.13;;;26.84;nan
14343;BME280;7255;53.596;9.960;2022-07-19T20:29:26;101506.66;;;26.80;nan
14343;BME280;7255;53.596;9.960;2022-07-19T20:31:52;101501.91;;;26.72;nan
14343;BME280;7255;53.596;9.960;2022-07-19T20:34:18;101506.72;;;26.66;nan
14343;BME280;7255;53.596;9.960;2022-07-19T20:36:45;101511.66;;;26.56;nan
14343;BME280;7255;53.596;9.960;2022-07-19T20:39:11;101501.13;;;26.58;nan
14343;BME280;7255;53.596;9.960;2022-07-19T20:41:39;101502.28;;;26.57;nan
14343;BME280;7255;53.596;9.960;2022-07-19T20:44:05;101494.84;;;26.35;nan
14343;BME280;7255;53.596;9.960;2022-07-19T20:46:33;101495.91;;;26.25;nan
14343;BME280;7255;53.596;9.960;2022-07-19T20:48:59;101499.41;;;26.17;nan
14343;BME280;7255;53.596;9.960;2022-07-19T20:51:26;101497.00;;;26.01;nan
14343;BME280;7255;53.596;9.960;2022-07-19T20:53:53;101500.69;;;25.97;nan
14343;BME280;7255;53.596;9.960;2022-07-19T20:56:19;101500.06;;;25.86;nan
14343;BME280;7255;53.596;9.960;2022-07-19T20:58:47;101501.94;;;25.77;nan
14343;BME280;7255;53.596;9.960;2022-07-19T21:01:13;101501.06;;;25.90;nan